sensor_id;sensor_type;location;lat;lon;timestamp;temperature;humidity
21559;DHT22;10940;48.890;8.240;2023-04-25T00:02:17;9.60;99.90
21559;DHT22;10940;48.890;8.240;2023-04-25T00:04:43;9.50;99.90
21559;DHT22;10940;48.890;8.240;2023-04-25T00:07:09;9.50;99.90
21559;DHT22;10940;48.890;8.240;2023-04-25T00:09:34;9.40;99.90
21559;DHT22;10940;48.890;8.240;2023-04-25T00:12:00;9.30;99.90
21559;DHT22;10940;48.890;8.240;2023-04-25T00:14:26;9.40;99.90
21559;DHT22;10940;48.890;8.240;2023-04-25T00:16:53;9.40;99.90
21559;DHT22;10940;48.890;8.240;2023-04-25T00:19:19;9.40;99.90
21559;DHT22;10940;48.890;8.240;2023-04-25T00:21:45;9.30;99.90
21559;DHT22;10940;48.890;8.240;2023-04-25T00:24:12;9.40;99.90
21559;DHT22;10940;48.890;8.240;2023-04-25T00:26:37;9.40;99.90
21559;DHT22;10940;48.890;8.240;2023-04-25T00:29:03;9.50;99.90
21559;DHT22;10940;48.890;8.240;2023-04-25T00:31:29;9.40;99.90
21559;DHT22;10940;48.890;8.240;2023-04-25T00:33:55;9.40;99.90
21559;DHT22;10940;48.890;8.240;2023-04-25T00:36:20;9.40;99.90
21559;DHT22;10940;48.890;8.240;2023-04-25T00:38:46;9.40;99.90
21559;DHT22;10940;48.890;8.240;2023-04-25T00:41:11;9.40;99.90
21559;DHT22;10940;48.890;8.240;2023-04-25T00:43:37;9.30;99.90
21559;DHT22;10940;48.890;8.240;2023-04-25T00:46:05;9.20;99.90
21559;DHT22;10940;48.890;8.240;2023-04-25T00:48:30;9.30;99.90
21559;DHT22;10940;48.890;8.240;2023-04-25T00:50:59;9.30;99.90
21559;DHT22;10940;48.890;8.240;2023-04-25T00:53:27;9.40;99.90
21559;DHT22;10940;48.890;8.240;2023-04-25T00:55:53;9.40;99.90
21559;DHT22;10940;48.890;8.240;2023-04-25T00:58:20;9.40;99.90
21559;DHT22;10940;48.890;8.240;2023-04-25T01:00:48;9.50;99.90
21559;DHT22;10940;48.890;8.240;2023-04-25T01:03:15;9.50;99.90
21559;DHT22;10940;48.890;8.240;2023-04-25T01:05:42;9.50;99.90
21559;DHT22;10940;48.890;8.240;2023-04-25T01:08:09;9.40;99.90
21559;DHT22;10940;48.890;8.240;2023-04-25T01:10:35;9.50;99.90
21559;DHT22;10940;48.890;8.240;2023-04-25T01:13:01;9.50;99.90
21559;DHT22;10940;48.890;8.240;2023-04-25T01:15:26;9.50;99.90
21559;DHT22;10940;48.890;8.240;2023-04-25T01:17:52;9.50;99.90
21559;DHT22;10940;48.890;8.240;2023-04-25T01:20:20;9.50;99.90
21559;DHT22;10940;48.890;8.240;2023-04-25T01:22:46;9.50;99.90
21559;DHT22;10940;48.890;8.240;2023-04-25T01:25:12;9.50;99.90
21559;DHT22;10940;48.890;8.240;2023-04-25T01:27:38;9.50;99.90
21559;DHT22;10940;48.890;8.240;2023-04-25T01:30:04;9.50;99.90
21559;DHT22;10940;48.890;8.240;2023-04-25T01:32:31;9.50;99.90
21559;DHT22;10940;48.890;8.240;2023-04-25T01:35:04;9.50;99.90
21559;DHT22;10940;48.890;8.240;2023-04-25T01:37:43;9.50;99.90
21559;DHT22;10940;48.890;8.240;2023-04-25T01:40:10;9.60;99.90
21559;DHT22;10940;48.890;8.240;2023-04-25T01:42:38;9.50;99.90
21559;DHT22;10940;48.890;8.240;2023-04-25T01:45:05;9.60;99.90
21559;DHT22;10940;48.890;8.240;2023-04-25T01:47:31;9.50;99.90
21559;DHT22;10940;48.890;8.240;2023-04-25T01:49:57;9.60;99.90
21559;DHT22;10940;48.890;8.240;2023-04-25T01:52:22;9.60;99.90
21559;DHT22;10940;48.890;8.240;2023-04-25T01:54:49;9.60;99.90
21559;DHT22;10940;48.890;8.240;2023-04-25T01:57:15;9.60;99.90
21559;DHT22;10940;48.890;8.240;2023-04-25T01:59:43;9.50;99.90
21559;DHT22;10940;48.890;8.240;2023-04-25T02:02:08;9.60;99.90
21559;DHT22;10940;48.890;8.240;2023-04-25T02:04:34;9.60;99.90
21559;DHT22;10940;48.890;8.240;2023-04-25T02:06:59;9.60;99.90
21559;DHT22;10940;48.890;8.240;2023-04-25T02:09:25;9.50;99.90
21559;DHT22;10940;48.890;8.240;2023-04-25T02:11:50;9.50;99.90
21559;DHT22;10940;48.890;8.240;2023-04-25T02:14:16;9.60;99.90
21559;DHT22;10940;48.890;8.240;2023-04-25T02:16:42;9.50;99.90
21559;DHT22;10940;48.890;8.240;2023-04-25T02:19:09;9.50;99.90
21559;DHT22;10940;48.890;8.240;2023-04-25T02:21:35;9.40;99.90
21559;DHT22;10940;48.890;8.240;2023-04-25T02:24:02;9.40;99.90
21559;DHT22;10940;48.890;8.240;2023-04-25T02:26:27;9.40;99.90
21559;DHT22;10940;48.890;8.240;2023-04-25T02:28:53;9.40;99.90
21559;DHT22;10940;48.890;8.240;2023-04-25T02:31:19;9.30;99.90
21559;DHT22;10940;48.890;8.240;2023-04-25T02:33:44;9.40;99.90
21559;DHT22;10940;48.890;8.240;2023-04-25T02:36:10;9.30;99.90
21559;DHT22;10940;48.890;8.240;2023-04-25T02:38:35;9.30;99.90
21559;DHT22;10940;48.890;8.240;2023-04-25T02:41:01;9.20;99.90
21559;DHT22;10940;48.890;8.240;2023-04-25T02:43:27;9.30;99.90
21559;DHT22;10940;48.890;8.240;2023-04-25T02:45:52;9.20;99.90
21559;DHT22;10940;48.890;8.240;2023-04-25T02:48:18;9.20;99.90
21559;DHT22;10940;48.890;8.240;2023-04-25T02:50:43;9.20;99.90
21559;DHT22;10940;48.890;8.240;2023-04-25T02:53:10;9.20;99.90
21559;DHT22;10940;48.890;8.240;2023-04-25T02:55:35;9.30;99.90
21559;DHT22;10940;48.890;8.240;2023-04-25T02:58:01;9.30;99.90
21559;DHT22;10940;48.890;8.240;2023-04-25T03:00:26;9.30;99.90
21559;DHT22;10940;48.890;8.240;2023-04-25T03:02:52;9.20;99.90
21559;DHT22;10940;48.890;8.240;2023-04-25T03:05:18;9.20;99.90
21559;DHT22;10940;48.890;8.240;2023-04-25T03:07:43;9.20;99.90
21559;DHT22;10940;48.890;8.240;2023-04-25T03:10:10;9.20;99.90
21559;DHT22;10940;48.890;8.240;2023-04-25T03:12:36;9.20;99.90
21559;DHT22;10940;48.890;8.240;2023-04-25T03:15:02;9.20;99.90
21559;DHT22;10940;48.890;8.240;2023-04-25T03:17:28;9.30;99.90
21559;DHT22;10940;48.890;8.240;2023-04-25T03:19:54;9.30;99.90
21559;DHT22;10940;48.890;8.240;2023-04-25T03:22:19;9.30;99.90
21559;DHT22;10940;48.890;8.240;2023-04-25T03:24:45;9.30;99.90
21559;DHT22;10940;48.890;8.240;2023-04-25T03:27:11;9.30;99.90
21559;DHT22;10940;48.890;8.240;2023-04-25T03:29:36;9.20;99.90
21559;DHT22;10940;48.890;8.240;2023-04-25T03:32:02;9.30;99.90
21559;DHT22;10940;48.890;8.240;2023-04-25T03:34:27;9.30;99.90
21559;DHT22;10940;48.890;8.240;2023-04-25T03:36:53;9.30;99.90
21559;DHT22;10940;48.890;8.240;2023-04-25T03:39:18;9.30;99.90
21559;DHT22;10940;48.890;8.240;2023-04-25T03:41:44;9.20;99.90
21559;DHT22;10940;48.890;8.240;2023-04-25T03:44:10;9.20;99.90
21559;DHT22;10940;48.890;8.240;2023-04-25T03:46:35;9.20;99.90
21559;DHT22;10940;48.890;8.240;2023-04-25T03:49:01;9.20;99.90
21559;DHT22;10940;48.890;8.240;2023-04-25T03:51:26;9.20;99.90
21559;DHT22;10940;48.890;8.240;2023-04-25T03:53:52;9.10;99.90
21559;DHT22;10940;48.890;8.240;2023-04-25T03:56:18;9.10;99.90
21559;DHT22;10940;48.890;8.240;2023-04-25T03:58:44;9.10;99.90
21559;DHT22;10940;48.890;8.240;2023-04-25T04:01:09;9.00;99.90
21559;DHT22;10940;48.890;8.240;2023-04-25T04:03:36;8.90;99.90
21559;DHT22;10940;48.890;8.240;2023-04-25T04:06:05;8.80;99.90
21559;DHT22;10940;48.890;8.240;2023-04-25T04:08:32;8.70;99.90
21559;DHT22;10940;48.890;8.240;2023-04-25T04:10:58;8.60;99.90
21559;DHT22;10940;48.890;8.240;2023-04-25T04:13:26;8.50;99.90
21559;DHT22;10940;48.890;8.240;2023-04-25T04:15:52;8.60;99.90
21559;DHT22;10940;48.890;8.240;2023-04-25T04:18:17;8.60;99.90
21559;DHT22;10940;48.890;8.240;2023-04-25T04:20:43;8.60;99.90
21559;DHT22;10940;48.890;8.240;2023-04-25T04:23:08;8.60;99.90
21559;DHT22;10940;48.890;8.240;2023-04-25T04:25:34;8.60;99.90
21559;DHT22;10940;48.890;8.240;2023-04-25T04:28:00;8.60;99.90
21559;DHT22;10940;48.890;8.240;2023-04-25T04:30:26;8.60;99.90
21559;DHT22;10940;48.890;8.240;2023-04-25T04:32:55;8.50;99.90
21559;DHT22;10940;48.890;8.240;2023-04-25T04:35:22;8.50;99.90
21559;DHT22;10940;48.890;8.240;2023-04-25T04:37:47;8.50;99.90
21559;DHT22;10940;48.890;8.240;2023-04-25T04:40:14;8.50;99.90
21559;DHT22;10940;48.890;8.240;2023-04-25T04:42:43;8.50;99.90
21559;DHT22;10940;48.890;8.240;2023-04-25T04:45:11;8.50;99.90
21559;DHT22;10940;48.890;8.240;2023-04-25T04:47:37;8.40;99.90
21559;DHT22;10940;48.890;8.240;2023-04-25T04:50:08;8.40;99.90
21559;DHT22;10940;48.890;8.240;2023-04-25T04:52:35;8.40;99.90
21559;DHT22;10940;48.890;8.240;2023-04-25T04:55:02;8.40;99.90
21559;DHT22;10940;48.890;8.240;2023-04-25T04:57:29;8.40;99.90
21559;DHT22;10940;48.890;8.240;2023-04-25T04:59:54;8.40;99.90
21559;DHT22;10940;48.890;8.240;2023-04-25T05:02:20;8.40;99.90
21559;DHT22;10940;48.890;8.240;2023-04-25T05:04:46;8.40;99.90
21559;DHT22;10940;48.890;8.240;2023-04-25T05:07:12;8.40;99.90
21559;DHT22;10940;48.890;8.240;2023-04-25T05:09:37;8.50;99.90
21559;DHT22;10940;48.890;8.240;2023-04-25T05:12:03;8.50;99.90
21559;DHT22;10940;48.890;8.240;2023-04-25T05:14:30;8.60;99.90
21559;DHT22;10940;48.890;8.240;2023-04-25T05:16:56;8.60;99.90
21559;DHT22;10940;48.890;8.240;2023-04-25T05:19:21;8.70;99.90
21559;DHT22;10940;48.890;8.240;2023-04-25T05:21:47;8.70;99.90
21559;DHT22;10940;48.890;8.240;2023-04-25T05:24:12;8.80;99.90
21559;DHT22;10940;48.890;8.240;2023-04-25T05:26:38;8.80;99.90
21559;DHT22;10940;48.890;8.240;2023-04-25T05:29:04;8.90;99.90
21559;DHT22;10940;48.890;8.240;2023-04-25T05:31:31;9.00;99.90
21559;DHT22;10940;48.890;8.240;2023-04-25T05:33:57;9.10;99.90
21559;DHT22;10940;48.890;8.240;2023-04-25T05:36:22;9.10;99.90
21559;DHT22;10940;48.890;8.240;2023-04-25T05:38:48;9.10;99.90
21559;DHT22;10940;48.890;8.240;2023-04-25T05:41:14;9.10;99.90
21559;DHT22;10940;48.890;8.240;2023-04-25T05:43:39;9.20;99.90
21559;DHT22;10940;48.890;8.240;2023-04-25T05:46:10;9.20;99.90
21559;DHT22;10940;48.890;8.240;2023-04-25T05:48:36;9.20;99.90
21559;DHT22;10940;48.890;8.240;2023-04-25T05:51:01;9.20;99.90
21559;DHT22;10940;48.890;8.240;2023-04-25T05:53:27;9.10;99.90
21559;DHT22;10940;48.890;8.240;2023-04-25T05:55:53;9.20;99.90
21559;DHT22;10940;48.890;8.240;2023-04-25T05:58:18;9.20;99.90
21559;DHT22;10940;48.890;8.240;2023-04-25T06:00:44;9.20;99.90
21559;DHT22;10940;48.890;8.240;2023-04-25T06:03:09;9.10;99.90
21559;DHT22;10940;48.890;8.240;2023-04-25T06:05:36;9.10;99.90
21559;DHT22;10940;48.890;8.240;2023-04-25T06:08:02;9.00;99.90
21559;DHT22;10940;48.890;8.240;2023-04-25T06:10:28;9.00;99.90
21559;DHT22;10940;48.890;8.240;2023-04-25T06:12:53;8.90;99.90
21559;DHT22;10940;48.890;8.240;2023-04-25T06:15:19;9.00;99.90
21559;DHT22;10940;48.890;8.240;2023-04-25T06:17:44;9.00;99.90
21559;DHT22;10940;48.890;8.240;2023-04-25T06:20:10;8.90;99.90
21559;DHT22;10940;48.890;8.240;2023-04-25T06:22:36;8.90;99.90
21559;DHT22;10940;48.890;8.240;2023-04-25T06:25:01;8.90;99.90
21559;DHT22;10940;48.890;8.240;2023-04-25T06:27:29;8.90;99.90
21559;DHT22;10940;48.890;8.240;2023-04-25T06:29:54;8.90;99.90
21559;DHT22;10940;48.890;8.240;2023-04-25T06:32:20;8.90;99.90
21559;DHT22;10940;48.890;8.240;2023-04-25T06:34:46;9.00;99.90
21559;DHT22;10940;48.890;8.240;2023-04-25T06:37:11;9.00;99.90
21559;DHT22;10940;48.890;8.240;2023-04-25T06:39:37;9.00;99.90
21559;DHT22;10940;48.890;8.240;2023-04-25T06:42:03;9.00;99.90
21559;DHT22;10940;48.890;8.240;2023-04-25T06:44:28;9.00;99.90
21559;DHT22;10940;48.890;8.240;2023-04-25T06:46:55;9.00;99.90
21559;DHT22;10940;48.890;8.240;2023-04-25T06:49:20;9.00;99.90
21559;DHT22;10940;48.890;8.240;2023-04-25T06:51:46;9.00;99.90
21559;DHT22;10940;48.890;8.240;2023-04-25T06:54:12;9.00;99.90
21559;DHT22;10940;48.890;8.240;2023-04-25T06:56:37;9.00;99.90
21559;DHT22;10940;48.890;8.240;2023-04-25T06:59:03;9.00;99.90
21559;DHT22;10940;48.890;8.240;2023-04-25T07:01:28;9.00;99.90
21559;DHT22;10940;48.890;8.240;2023-04-25T07:03:54;9.10;99.90
21559;DHT22;10940;48.890;8.240;2023-04-25T07:06:19;9.00;99.90
21559;DHT22;10940;48.890;8.240;2023-04-25T07:08:45;9.00;99.90
21559;DHT22;10940;48.890;8.240;2023-04-25T07:11:11;9.00;99.90
21559;DHT22;10940;48.890;8.240;2023-04-25T07:13:36;9.00;99.90
21559;DHT22;10940;48.890;8.240;2023-04-25T07:16:02;8.90;99.90
21559;DHT22;10940;48.890;8.240;2023-04-25T07:18:28;8.80;99.90
21559;DHT22;10940;48.890;8.240;2023-04-25T07:20:54;8.80;99.90
21559;DHT22;10940;48.890;8.240;2023-04-25T07:23:20;8.80;99.90
21559;DHT22;10940;48.890;8.240;2023-04-25T07:25:46;8.80;99.90
21559;DHT22;10940;48.890;8.240;2023-04-25T07:28:12;8.80;99.90
21559;DHT22;10940;48.890;8.240;2023-04-25T07:30:37;8.70;99.90
21559;DHT22;10940;48.890;8.240;2023-04-25T07:33:03;8.70;99.90
21559;DHT22;10940;48.890;8.240;2023-04-25T07:35:29;8.70;99.90
21559;DHT22;10940;48.890;8.240;2023-04-25T07:37:54;8.60;99.90
21559;DHT22;10940;48.890;8.240;2023-04-25T07:40:20;8.60;99.90
21559;DHT22;10940;48.890;8.240;2023-04-25T07:42:46;8.60;99.90
21559;DHT22;10940;48.890;8.240;2023-04-25T07:45:12;8.50;99.90
21559;DHT22;10940;48.890;8.240;2023-04-25T07:47:37;8.50;99.90
21559;DHT22;10940;48.890;8.240;2023-04-25T07:50:04;8.60;99.90
21559;DHT22;10940;48.890;8.240;2023-04-25T07:52:29;8.50;99.90
21559;DHT22;10940;48.890;8.240;2023-04-25T07:54:55;8.60;99.90
21559;DHT22;10940;48.890;8.240;2023-04-25T07:57:21;8.50;99.90
21559;DHT22;10940;48.890;8.240;2023-04-25T07:59:47;8.50;99.90
21559;DHT22;10940;48.890;8.240;2023-04-25T08:02:12;8.50;99.90
21559;DHT22;10940;48.890;8.240;2023-04-25T08:04:38;8.60;99.90
21559;DHT22;10940;48.890;8.240;2023-04-25T08:07:04;8.60;99.90
21559;DHT22;10940;48.890;8.240;2023-04-25T08:09:29;8.60;99.90
21559;DHT22;10940;48.890;8.240;2023-04-25T08:11:59;8.60;99.90
21559;DHT22;10940;48.890;8.240;2023-04-25T08:14:26;8.70;99.90
21559;DHT22;10940;48.890;8.240;2023-04-25T08:16:51;8.70;99.90
21559;DHT22;10940;48.890;8.240;2023-04-25T08:19:17;8.60;99.90
21559;DHT22;10940;48.890;8.240;2023-04-25T08:21:43;8.70;99.90
21559;DHT22;10940;48.890;8.240;2023-04-25T08:24:08;8.70;99.90
21559;DHT22;10940;48.890;8.240;2023-04-25T08:26:34;8.70;99.90
21559;DHT22;10940;48.890;8.240;2023-04-25T08:28:59;8.80;99.90
21559;DHT22;10940;48.890;8.240;2023-04-25T08:31:25;8.80;99.90
21559;DHT22;10940;48.890;8.240;2023-04-25T08:33:50;8.90;99.90
21559;DHT22;10940;48.890;8.240;2023-04-25T08:36:17;8.90;99.90
21559;DHT22;10940;48.890;8.240;2023-04-25T08:38:44;8.80;99.90
21559;DHT22;10940;48.890;8.240;2023-04-25T08:41:11;8.80;99.90
21559;DHT22;10940;48.890;8.240;2023-04-25T08:43:37;8.80;99.90
21559;DHT22;10940;48.890;8.240;2023-04-25T08:46:03;8.80;99.90
21559;DHT22;10940;48.890;8.240;2023-04-25T08:48:29;8.80;99.90
21559;DHT22;10940;48.890;8.240;2023-04-25T08:50:57;8.80;99.90
21559;DHT22;10940;48.890;8.240;2023-04-25T08:53:29;8.80;99.90
21559;DHT22;10940;48.890;8.240;2023-04-25T08:55:57;8.80;99.90
21559;DHT22;10940;48.890;8.240;2023-04-25T08:58:23;8.80;99.90
21559;DHT22;10940;48.890;8.240;2023-04-25T09:00:50;8.80;99.90
21559;DHT22;10940;48.890;8.240;2023-04-25T09:03:17;8.80;99.90
21559;DHT22;10940;48.890;8.240;2023-04-25T09:05:43;8.80;99.90
21559;DHT22;10940;48.890;8.240;2023-04-25T09:08:09;8.70;99.90
21559;DHT22;10940;48.890;8.240;2023-04-25T09:10:35;8.70;99.90
21559;DHT22;10940;48.890;8.240;2023-04-25T09:13:12;8.60;99.90
21559;DHT22;10940;48.890;8.240;2023-04-25T09:15:54;8.60;99.90
21559;DHT22;10940;48.890;8.240;2023-04-25T09:20:52;8.60;99.90
21559;DHT22;10940;48.890;8.240;2023-04-25T09:23:19;8.60;99.90
21559;DHT22;10940;48.890;8.240;2023-04-25T09:25:48;8.60;99.90
21559;DHT22;10940;48.890;8.240;2023-04-25T09:28:14;8.60;99.90
21559;DHT22;10940;48.890;8.240;2023-04-25T09:30:39;8.60;99.90
21559;DHT22;10940;48.890;8.240;2023-04-25T09:35:35;8.70;99.90
21559;DHT22;10940;48.890;8.240;2023-04-25T09:38:10;8.80;99.90
21559;DHT22;10940;48.890;8.240;2023-04-25T09:40:44;8.80;99.90
21559;DHT22;10940;48.890;8.240;2023-04-25T09:43:20;8.90;99.90
21559;DHT22;10940;48.890;8.240;2023-04-25T09:45:46;9.00;99.90
21559;DHT22;10940;48.890;8.240;2023-04-25T09:48:21;9.10;99.90
21559;DHT22;10940;48.890;8.240;2023-04-25T09:53:34;9.30;99.90
21559;DHT22;10940;48.890;8.240;2023-04-25T09:56:04;9.40;99.90
21559;DHT22;10940;48.890;8.240;2023-04-25T09:58:31;9.50;99.90
21559;DHT22;10940;48.890;8.240;2023-04-25T10:01:01;9.70;99.90
21559;DHT22;10940;48.890;8.240;2023-04-25T10:03:30;9.80;99.90
21559;DHT22;10940;48.890;8.240;2023-04-25T10:05:59;9.90;99.90
21559;DHT22;10940;48.890;8.240;2023-04-25T10:08:30;9.90;99.90
21559;DHT22;10940;48.890;8.240;2023-04-25T10:11:02;9.90;99.90
21559;DHT22;10940;48.890;8.240;2023-04-25T10:13:29;10.00;99.90
21559;DHT22;10940;48.890;8.240;2023-04-25T10:16:04;10.00;99.90
21559;DHT22;10940;48.890;8.240;2023-04-25T10:18:31;10.20;99.90
21559;DHT22;10940;48.890;8.240;2023-04-25T10:21:01;10.40;99.90
21559;DHT22;10940;48.890;8.240;2023-04-25T10:23:30;10.50;99.90
21559;DHT22;10940;48.890;8.240;2023-04-25T10:25:56;10.40;99.90
21559;DHT22;10940;48.890;8.240;2023-04-25T10:28:22;10.40;99.90
21559;DHT22;10940;48.890;8.240;2023-04-25T10:31:04;10.30;99.90
21559;DHT22;10940;48.890;8.240;2023-04-25T10:33:37;10.20;99.90
21559;DHT22;10940;48.890;8.240;2023-04-25T10:36:14;10.10;99.90
21559;DHT22;10940;48.890;8.240;2023-04-25T10:38:42;10.00;99.90
21559;DHT22;10940;48.890;8.240;2023-04-25T10:41:09;10.00;99.90
21559;DHT22;10940;48.890;8.240;2023-04-25T10:43:45;9.90;99.90
21559;DHT22;10940;48.890;8.240;2023-04-25T10:46:29;9.80;99.90
21559;DHT22;10940;48.890;8.240;2023-04-25T10:49:00;9.70;99.90
21559;DHT22;10940;48.890;8.240;2023-04-25T10:51:31;9.70;99.90
21559;DHT22;10940;48.890;8.240;2023-04-25T10:54:09;9.70;99.90
21559;DHT22;10940;48.890;8.240;2023-04-25T10:56:40;9.60;99.90
21559;DHT22;10940;48.890;8.240;2023-04-25T10:59:16;9.70;99.90
21559;DHT22;10940;48.890;8.240;2023-04-25T11:01:47;9.70;99.90
21559;DHT22;10940;48.890;8.240;2023-04-25T11:04:29;9.70;99.90
21559;DHT22;10940;48.890;8.240;2023-04-25T11:09:30;9.60;99.90
21559;DHT22;10940;48.890;8.240;2023-04-25T11:11:58;9.50;99.90
21559;DHT22;10940;48.890;8.240;2023-04-25T11:14:25;9.40;99.90
21559;DHT22;10940;48.890;8.240;2023-04-25T11:16:54;9.10;99.90
21559;DHT22;10940;48.890;8.240;2023-04-25T11:19:24;8.70;99.90
21559;DHT22;10940;48.890;8.240;2023-04-25T11:21:50;8.50;99.90
21559;DHT22;10940;48.890;8.240;2023-04-25T11:24:16;8.20;99.90
21559;DHT22;10940;48.890;8.240;2023-04-25T11:26:43;8.10;99.90
21559;DHT22;10940;48.890;8.240;2023-04-25T11:29:09;8.00;99.90
21559;DHT22;10940;48.890;8.240;2023-04-25T11:31:35;7.90;99.90
21559;DHT22;10940;48.890;8.240;2023-04-25T11:34:00;7.80;99.90
21559;DHT22;10940;48.890;8.240;2023-04-25T11:36:26;7.70;99.90
21559;DHT22;10940;48.890;8.240;2023-04-25T11:38:53;7.70;99.90
21559;DHT22;10940;48.890;8.240;2023-04-25T11:41:19;7.70;99.90
21559;DHT22;10940;48.890;8.240;2023-04-25T11:43:45;7.70;99.90
21559;DHT22;10940;48.890;8.240;2023-04-25T11:46:11;7.70;99.90
21559;DHT22;10940;48.890;8.240;2023-04-25T11:48:41;7.60;99.90
21559;DHT22;10940;48.890;8.240;2023-04-25T11:51:07;7.50;99.90
21559;DHT22;10940;48.890;8.240;2023-04-25T11:53:32;7.40;99.90
21559;DHT22;10940;48.890;8.240;2023-04-25T11:55:59;7.40;99.90
21559;DHT22;10940;48.890;8.240;2023-04-25T11:58:25;7.30;99.90
21559;DHT22;10940;48.890;8.240;2023-04-25T12:00:51;7.40;99.90
21559;DHT22;10940;48.890;8.240;2023-04-25T12:03:18;7.30;99.90
21559;DHT22;10940;48.890;8.240;2023-04-25T12:05:44;7.30;99.90
21559;DHT22;10940;48.890;8.240;2023-04-25T12:08:12;7.30;99.90
21559;DHT22;10940;48.890;8.240;2023-04-25T12:10:39;7.40;99.90
21559;DHT22;10940;48.890;8.240;2023-04-25T12:13:23;7.40;99.90
21559;DHT22;10940;48.890;8.240;2023-04-25T12:15:49;7.40;99.90
21559;DHT22;10940;48.890;8.240;2023-04-25T12:18:20;7.50;99.90
21559;DHT22;10940;48.890;8.240;2023-04-25T12:20:46;7.60;99.90
21559;DHT22;10940;48.890;8.240;2023-04-25T12:23:12;7.70;99.90
21559;DHT22;10940;48.890;8.240;2023-04-25T12:25:42;7.80;99.90
21559;DHT22;10940;48.890;8.240;2023-04-25T12:28:11;8.00;99.90
21559;DHT22;10940;48.890;8.240;2023-04-25T12:33:29;8.20;99.90
21559;DHT22;10940;48.890;8.240;2023-04-25T12:35:56;8.30;99.90
21559;DHT22;10940;48.890;8.240;2023-04-25T12:40:51;8.40;99.90
21559;DHT22;10940;48.890;8.240;2023-04-25T12:43:17;8.40;99.90
21559;DHT22;10940;48.890;8.240;2023-04-25T12:45:44;8.40;99.90
21559;DHT22;10940;48.890;8.240;2023-04-25T12:48:09;8.40;99.90
21559;DHT22;10940;48.890;8.240;2023-04-25T12:50:35;8.30;99.90
21559;DHT22;10940;48.890;8.240;2023-04-25T12:53:01;8.30;99.90
21559;DHT22;10940;48.890;8.240;2023-04-25T12:55:26;8.30;99.90
21559;DHT22;10940;48.890;8.240;2023-04-25T12:57:52;8.20;99.90
21559;DHT22;10940;48.890;8.240;2023-04-25T13:00:18;8.20;99.90
21559;DHT22;10940;48.890;8.240;2023-04-25T13:02:45;8.30;99.90
21559;DHT22;10940;48.890;8.240;2023-04-25T13:05:12;8.20;99.90
21559;DHT22;10940;48.890;8.240;2023-04-25T13:07:38;8.20;99.90
21559;DHT22;10940;48.890;8.240;2023-04-25T13:10:04;8.30;99.90
21559;DHT22;10940;48.890;8.240;2023-04-25T13:12:31;8.40;99.90
21559;DHT22;10940;48.890;8.240;2023-04-25T13:14:57;8.50;99.90
21559;DHT22;10940;48.890;8.240;2023-04-25T13:17:22;8.60;99.90
21559;DHT22;10940;48.890;8.240;2023-04-25T13:19:48;8.80;99.90
21559;DHT22;10940;48.890;8.240;2023-04-25T13:22:14;9.10;99.90
21559;DHT22;10940;48.890;8.240;2023-04-25T13:24:42;9.30;99.90
21559;DHT22;10940;48.890;8.240;2023-04-25T13:27:07;9.50;99.90
21559;DHT22;10940;48.890;8.240;2023-04-25T13:29:33;9.70;99.90
21559;DHT22;10940;48.890;8.240;2023-04-25T13:32:03;9.90;99.90
21559;DHT22;10940;48.890;8.240;2023-04-25T13:34:29;10.30;99.90
21559;DHT22;10940;48.890;8.240;2023-04-25T13:36:55;10.60;99.90
21559;DHT22;10940;48.890;8.240;2023-04-25T13:39:21;10.80;99.90
21559;DHT22;10940;48.890;8.240;2023-04-25T13:41:47;10.90;99.90
21559;DHT22;10940;48.890;8.240;2023-04-25T13:44:12;11.10;99.90
21559;DHT22;10940;48.890;8.240;2023-04-25T13:46:38;11.50;99.90
21559;DHT22;10940;48.890;8.240;2023-04-25T13:49:04;11.60;99.90
21559;DHT22;10940;48.890;8.240;2023-04-25T13:51:30;11.60;99.90
21559;DHT22;10940;48.890;8.240;2023-04-25T13:53:56;11.50;99.90
21559;DHT22;10940;48.890;8.240;2023-04-25T13:56:22;11.60;99.90
21559;DHT22;10940;48.890;8.240;2023-04-25T13:58:51;11.50;99.90
21559;DHT22;10940;48.890;8.240;2023-04-25T14:01:20;11.40;99.90
21559;DHT22;10940;48.890;8.240;2023-04-25T14:03:46;11.40;99.90
21559;DHT22;10940;48.890;8.240;2023-04-25T14:06:12;11.30;99.90
21559;DHT22;10940;48.890;8.240;2023-04-25T14:08:38;11.30;99.90
21559;DHT22;10940;48.890;8.240;2023-04-25T14:11:04;11.40;99.90
21559;DHT22;10940;48.890;8.240;2023-04-25T14:13:30;11.50;99.90
21559;DHT22;10940;48.890;8.240;2023-04-25T14:15:55;11.50;99.90
21559;DHT22;10940;48.890;8.240;2023-04-25T14:18:21;11.60;99.90
21559;DHT22;10940;48.890;8.240;2023-04-25T14:20:47;11.60;99.90
21559;DHT22;10940;48.890;8.240;2023-04-25T14:23:13;11.80;99.90
21559;DHT22;10940;48.890;8.240;2023-04-25T14:25:39;12.00;99.90
21559;DHT22;10940;48.890;8.240;2023-04-25T14:28:05;12.40;99.90
21559;DHT22;10940;48.890;8.240;2023-04-25T14:30:31;12.60;99.90
21559;DHT22;10940;48.890;8.240;2023-04-25T14:32:57;12.80;99.90
21559;DHT22;10940;48.890;8.240;2023-04-25T14:35:22;12.80;99.90
21559;DHT22;10940;48.890;8.240;2023-04-25T14:37:48;12.60;99.90
21559;DHT22;10940;48.890;8.240;2023-04-25T14:40:14;12.40;99.90
21559;DHT22;10940;48.890;8.240;2023-04-25T14:42:40;12.40;99.90
21559;DHT22;10940;48.890;8.240;2023-04-25T14:45:07;12.20;99.90
21559;DHT22;10940;48.890;8.240;2023-04-25T14:47:36;12.00;99.90
21559;DHT22;10940;48.890;8.240;2023-04-25T14:50:02;12.00;99.90
21559;DHT22;10940;48.890;8.240;2023-04-25T14:52:28;12.00;99.90
21559;DHT22;10940;48.890;8.240;2023-04-25T14:54:54;12.00;99.90
21559;DHT22;10940;48.890;8.240;2023-04-25T14:57:19;12.00;99.90
21559;DHT22;10940;48.890;8.240;2023-04-25T14:59:45;11.90;99.90
21559;DHT22;10940;48.890;8.240;2023-04-25T15:02:11;11.80;99.90
21559;DHT22;10940;48.890;8.240;2023-04-25T15:04:37;11.70;99.90
21559;DHT22;10940;48.890;8.240;2023-04-25T15:07:02;11.70;99.90
21559;DHT22;10940;48.890;8.240;2023-04-25T15:09:29;11.60;99.90
21559;DHT22;10940;48.890;8.240;2023-04-25T15:11:55;11.60;99.90
21559;DHT22;10940;48.890;8.240;2023-04-25T15:14:20;11.40;99.90
21559;DHT22;10940;48.890;8.240;2023-04-25T15:16:46;11.20;99.90
21559;DHT22;10940;48.890;8.240;2023-04-25T15:19:11;11.00;99.90
21559;DHT22;10940;48.890;8.240;2023-04-25T15:21:37;10.80;99.90
21559;DHT22;10940;48.890;8.240;2023-04-25T15:24:03;10.60;99.90
21559;DHT22;10940;48.890;8.240;2023-04-25T15:26:28;10.40;99.90
21559;DHT22;10940;48.890;8.240;2023-04-25T15:28:54;10.20;99.90
21559;DHT22;10940;48.890;8.240;2023-04-25T15:31:19;9.90;99.90
21559;DHT22;10940;48.890;8.240;2023-04-25T15:33:45;9.70;99.90
21559;DHT22;10940;48.890;8.240;2023-04-25T15:36:11;9.50;99.90
21559;DHT22;10940;48.890;8.240;2023-04-25T15:38:37;9.20;99.90
21559;DHT22;10940;48.890;8.240;2023-04-25T15:41:03;9.10;99.90
21559;DHT22;10940;48.890;8.240;2023-04-25T15:43:29;9.00;99.90
21559;DHT22;10940;48.890;8.240;2023-04-25T15:45:55;8.80;99.90
21559;DHT22;10940;48.890;8.240;2023-04-25T15:48:21;8.70;99.90
21559;DHT22;10940;48.890;8.240;2023-04-25T15:50:46;8.60;99.90
21559;DHT22;10940;48.890;8.240;2023-04-25T15:53:12;8.50;99.90
21559;DHT22;10940;48.890;8.240;2023-04-25T15:55:38;8.50;99.90
21559;DHT22;10940;48.890;8.240;2023-04-25T15:58:03;8.60;99.90